createdAt,value
2023-02-09T00:00:46.523Z,96462.00
2023-02-09T00:01:46.254Z,96462.00
2023-02-09T00:02:46.295Z,96462.00
2023-02-09T00:03:46.449Z,96464.00
2023-02-09T00:04:46.320Z,96464.00
2023-02-09T00:05:46.375Z,96464.00
2023-02-09T00:06:46.404Z,96466.00
2023-02-09T00:07:46.411Z,96466.00
2023-02-09T00:08:46.497Z,96462.00
2023-02-09T00:09:46.473Z,96462.00
2023-02-09T00:10:46.829Z,96461.00
2023-02-09T00:11:46.579Z,96459.00
2023-02-09T00:12:46.626Z,96457.00
2023-02-09T00:13:46.668Z,96459.00
2023-02-09T00:14:46.697Z,96459.00
2023-02-09T00:15:46.763Z,96461.00
2023-02-09T00:16:46.837Z,96462.00
2023-02-09T00:17:46.860Z,96464.00
2023-02-09T00:18:46.941Z,96462.00
2023-02-09T00:19:46.977Z,96462.00
2023-02-09T00:20:47.153Z,96462.00
2023-02-09T00:21:47.047Z,96462.00
2023-02-09T00:22:47.061Z,96459.00
2023-02-09T00:23:47.108Z,96459.00
2023-02-09T00:24:47.187Z,96459.00
2023-02-09T00:25:47.187Z,96462.00
2023-02-09T00:26:47.255Z,96457.00
2023-02-09T00:27:47.247Z,96459.00
2023-02-09T00:28:47.245Z,96457.00
2023-02-09T00:29:47.290Z,96457.00
2023-02-09T00:30:47.762Z,96457.00
2023-02-09T00:31:47.424Z,96459.00
2023-02-09T00:32:47.369Z,96461.00
2023-02-09T00:33:47.647Z,96461.00
2023-02-09T00:34:47.424Z,96462.00
2023-02-09T00:35:47.462Z,96461.00
2023-02-09T00:36:47.475Z,96464.00
2023-02-09T00:37:47.518Z,96464.00
2023-02-09T00:38:47.547Z,96462.00
2023-02-09T00:39:47.593Z,96464.00
2023-02-09T00:40:47.636Z,96464.00
2023-02-09T00:41:47.642Z,96464.00
2023-02-09T00:42:47.655Z,96462.00
2023-02-09T00:43:47.713Z,96462.00
2023-02-09T00:44:47.732Z,96461.00
2023-02-09T00:45:47.791Z,96457.00
2023-02-09T00:46:47.769Z,96464.00
2023-02-09T00:47:47.812Z,96462.00
2023-02-09T00:48:47.838Z,96462.00
2023-02-09T00:49:47.852Z,96464.00
2023-02-09T00:50:47.907Z,96464.00
2023-02-09T00:51:47.932Z,96466.00
2023-02-09T00:52:47.982Z,96466.00
2023-02-09T00:53:47.975Z,96468.00
2023-02-09T00:54:48.037Z,96466.00
2023-02-09T00:55:48.096Z,96464.00
2023-02-09T00:56:48.113Z,96464.00
2023-02-09T00:57:48.123Z,96464.00
2023-02-09T00:58:48.161Z,96464.00
2023-02-09T00:59:48.161Z,96466.00
2023-02-09T01:00:48.376Z,96468.00
2023-02-09T01:01:48.226Z,96472.00
2023-02-09T01:02:48.249Z,96474.00
2023-02-09T01:03:48.302Z,96474.00
2023-02-09T01:04:48.327Z,96476.00
2023-02-09T01:05:48.309Z,96472.00
2023-02-09T01:06:48.358Z,96470.00
2023-02-09T01:07:48.376Z,96470.00
2023-02-09T01:08:48.425Z,96470.00
2023-02-09T01:09:48.450Z,96470.00
2023-02-09T01:10:48.507Z,96472.00
2023-02-09T01:11:48.491Z,96474.00
2023-02-09T01:12:48.512Z,96472.00
2023-02-09T01:13:48.567Z,96470.00
2023-02-09T01:14:48.599Z,96470.00
2023-02-09T01:15:48.643Z,96468.00
2023-02-09T01:16:48.694Z,96468.00
2023-02-09T01:17:48.698Z,96470.00
2023-02-09T01:18:48.740Z,96468.00
2023-02-09T01:19:48.744Z,96468.00
2023-02-09T01:20:48.781Z,96468.00
2023-02-09T01:21:48.782Z,96462.00
2023-02-09T01:22:48.811Z,96466.00
2023-02-09T01:23:48.845Z,96462.00
2023-02-09T01:24:48.865Z,96466.00
2023-02-09T01:25:48.913Z,96464.00
2023-02-09T01:26:48.913Z,96462.00
2023-02-09T01:27:48.969Z,96466.00
2023-02-09T01:28:49.097Z,96462.00
2023-02-09T01:29:48.989Z,96462.00
2023-02-09T01:30:49.536Z,96462.00
2023-02-09T01:31:49.150Z,96461.00
2023-02-09T01:32:49.098Z,96461.00
2023-02-09T01:33:49.126Z,96462.00
2023-02-09T01:34:49.184Z,96461.00
2023-02-09T01:35:49.250Z,96461.00
2023-02-09T01:36:49.236Z,96459.00
2023-02-09T01:37:49.279Z,96464.00
2023-02-09T01:38:49.305Z,96462.00
2023-02-09T01:39:49.313Z,96461.00
2023-02-09T01:40:49.362Z,96459.00
2023-02-09T01:41:49.374Z,96459.00
2023-02-09T01:42:49.414Z,96461.00
2023-02-09T01:43:49.449Z,96461.00
2023-02-09T01:44:49.439Z,96455.00
2023-02-09T01:45:49.508Z,96455.00
2023-02-09T01:46:49.483Z,96447.00
2023-02-09T01:56:49.567Z,96439.00
2023-02-09T01:57:49.593Z,96441.00
2023-02-09T01:58:49.543Z,96441.00
2023-02-09T01:59:49.564Z,96441.00
2023-02-09T02:00:49.579Z,96441.00
2023-02-09T02:01:49.657Z,96441.00
2023-02-09T02:02:49.762Z,96441.00
2023-02-09T02:03:49.729Z,96439.00
2023-02-09T02:22:50.016Z,96413.00
2023-02-09T02:23:50.014Z,96413.00
2023-02-09T02:24:50.078Z,96413.00
2023-02-09T02:25:50.106Z,96413.00
2023-02-09T02:26:50.127Z,96411.00
2023-02-09T02:27:50.248Z,96411.00
2023-02-09T02:28:50.246Z,96413.00
2023-02-09T02:29:50.260Z,96411.00
2023-02-09T02:30:50.599Z,96411.00
2023-02-09T02:31:50.435Z,96411.00
2023-02-09T02:32:50.377Z,96411.00
2023-02-09T02:35:50.497Z,96409.00
2023-02-09T02:36:50.501Z,96407.00
2023-02-09T02:37:50.565Z,96405.00
2023-02-09T02:38:50.573Z,96405.00
2023-02-09T03:27:51.604Z,96401.00
2023-02-09T03:28:51.605Z,96400.00
2023-02-09T03:29:51.620Z,96400.00
2023-02-09T03:30:51.643Z,96398.00
2023-02-09T03:31:51.678Z,96396.00
2023-02-09T03:32:51.618Z,96394.00
2023-02-09T03:33:51.707Z,96398.00
2023-02-09T03:34:51.626Z,96396.00
2023-02-09T03:35:51.651Z,96396.00
2023-02-09T03:36:51.707Z,96396.00
2023-02-09T03:37:51.741Z,96398.00
2023-02-09T03:38:51.814Z,96398.00
2023-02-09T03:39:51.832Z,96398.00
2023-02-09T03:40:51.826Z,96398.00
2023-02-09T03:41:51.790Z,96398.00
2023-02-09T03:42:51.820Z,96400.00
2023-02-09T03:43:51.785Z,96401.00
2023-02-09T03:44:51.792Z,96403.00
2023-02-09T03:45:51.804Z,96403.00
2023-02-09T03:46:51.905Z,96403.00
2023-02-09T03:47:51.790Z,96403.00
2023-02-09T03:48:51.803Z,96405.00
2023-02-09T03:56:51.886Z,96401.00
2023-02-09T03:57:51.948Z,96400.00
2023-02-09T03:58:51.964Z,96401.00
2023-02-09T03:59:52.013Z,96400.00
2023-02-09T04:00:52.104Z,96400.00
2023-02-09T04:01:52.102Z,96400.00
2023-02-09T04:02:52.194Z,96401.00
2023-02-09T04:03:52.200Z,96401.00
2023-02-09T04:04:52.229Z,96401.00
2023-02-09T04:05:52.238Z,96401.00
2023-02-09T04:06:52.207Z,96403.00
2023-02-09T04:07:52.192Z,96405.00
2023-02-09T04:08:52.198Z,96405.00
2023-02-09T04:09:52.175Z,96403.00
2023-02-09T04:10:52.194Z,96407.00
2023-02-09T04:11:52.211Z,96403.00
2023-02-09T04:14:52.205Z,96405.00
2023-02-09T04:15:52.241Z,96405.00
2023-02-09T04:16:52.203Z,96405.00
2023-02-09T04:17:52.189Z,96405.00
2023-02-09T04:18:52.334Z,96405.00
2023-02-09T04:19:52.305Z,96405.00
2023-02-09T04:20:52.353Z,96405.00
2023-02-09T04:21:52.372Z,96409.00
2023-02-09T04:22:52.412Z,96403.00
2023-02-09T04:23:52.462Z,96409.00
2023-02-09T04:24:52.486Z,96409.00
2023-02-09T04:25:52.489Z,96407.00
2023-02-09T04:26:52.540Z,96407.00
2023-02-09T04:27:52.644Z,96405.00
2023-02-09T04:28:52.634Z,96405.00
2023-02-09T04:29:52.714Z,96405.00
2023-02-09T04:30:52.841Z,96405.00
2023-02-09T04:31:52.803Z,96407.00
2023-02-09T04:32:52.841Z,96407.00
2023-02-09T04:33:52.880Z,96405.00
2023-02-09T04:34:52.932Z,96409.00
2023-02-09T04:35:52.974Z,96407.00
2023-02-09T04:36:53.058Z,96409.00
2023-02-09T04:37:53.094Z,96411.00
2023-02-09T04:38:53.186Z,96411.00
2023-02-09T04:39:53.201Z,96409.00
2023-02-09T04:40:53.257Z,96409.00
2023-02-09T04:41:53.316Z,96409.00
2023-02-09T04:42:53.373Z,96411.00
2023-02-09T04:43:53.439Z,96413.00
2023-02-09T04:44:53.494Z,96415.00
2023-02-09T04:45:53.607Z,96415.00
2023-02-09T04:46:53.612Z,96413.00
2023-02-09T04:47:53.653Z,96413.00
2023-02-09T04:48:53.671Z,96413.00
2023-02-09T04:49:53.739Z,96413.00
2023-02-09T04:50:53.813Z,96411.00
2023-02-09T04:51:53.858Z,96413.00
2023-02-09T04:52:53.885Z,96413.00
2023-02-09T04:54:53.946Z,96417.00
2023-02-09T05:42:56.063Z,96468.00
2023-02-09T05:43:56.108Z,96466.00
2023-02-09T05:44:56.186Z,96470.00
2023-02-09T05:45:56.277Z,96470.00
2023-02-09T05:46:56.267Z,96468.00
2023-02-09T05:47:56.278Z,96470.00
2023-02-09T05:48:56.265Z,96474.00
2023-02-09T05:49:56.302Z,96474.00
2023-02-09T05:50:56.322Z,96474.00
2023-02-09T05:51:56.310Z,96474.00
2023-02-09T05:52:56.310Z,96478.00
2023-02-09T05:53:56.355Z,96478.00
2023-02-09T05:54:56.341Z,96482.00
2023-02-09T05:55:56.306Z,96486.00
2023-02-09T05:56:56.350Z,96488.00
2023-02-09T05:57:56.337Z,96492.00
2023-02-09T05:58:56.826Z,96492.00
2023-02-09T05:59:56.360Z,96494.00
2023-02-09T06:01:03.357Z,96494.00
2023-02-09T06:01:56.338Z,96496.00
2023-02-09T06:02:56.331Z,96500.00
2023-02-09T06:03:56.347Z,96502.00
2023-02-09T06:04:56.353Z,96502.00
2023-02-09T06:05:56.299Z,96504.00
2023-02-09T06:06:56.397Z,96504.00
2023-02-09T06:07:56.309Z,96506.00
2023-02-09T06:08:56.310Z,96504.00
2023-02-09T06:09:56.285Z,96508.00
2023-02-09T06:10:56.250Z,96509.00
2023-02-09T06:11:56.249Z,96513.00
2023-02-09T06:12:56.310Z,96511.00
2023-02-09T06:13:56.310Z,96513.00
2023-02-09T06:14:56.265Z,96513.00
2023-02-09T06:15:56.326Z,96517.00
2023-02-09T06:16:56.232Z,96519.00
2023-02-09T06:17:56.247Z,96523.00
2023-02-09T06:18:56.229Z,96525.00
2023-02-09T06:19:56.206Z,96527.00
2023-02-09T06:20:56.269Z,96531.00
2023-02-09T06:21:56.203Z,96533.00
2023-02-09T06:22:56.208Z,96533.00
2023-02-09T06:23:56.187Z,96535.00
2023-02-09T06:24:56.185Z,96533.00
2023-02-09T06:25:56.184Z,96537.00
2023-02-09T06:26:56.213Z,96539.00
2023-02-09T06:27:56.179Z,96541.00
2023-02-09T06:28:56.160Z,96543.00
2023-02-09T06:29:56.153Z,96547.00
2023-02-09T06:30:56.141Z,96547.00
2023-02-09T06:31:56.242Z,96549.00
2023-02-09T06:32:56.147Z,96553.00
2023-02-09T06:33:56.184Z,96549.00
2023-02-09T06:34:56.259Z,96551.00
2023-02-09T06:35:56.200Z,96551.00
2023-02-09T06:36:56.266Z,96553.00
2023-02-09T06:37:56.226Z,96549.00
2023-02-09T06:38:56.293Z,96549.00
2023-02-09T06:39:56.300Z,96551.00
2023-02-09T06:40:56.425Z,96553.00
2023-02-09T06:41:56.448Z,96555.00
2023-02-09T06:42:56.406Z,96556.00
2023-02-09T06:43:56.822Z,96558.00
2023-02-09T06:44:56.435Z,96558.00
2023-02-09T06:47:15.540Z,96560.00
2023-02-09T06:48:15.323Z,96560.00
2023-02-09T06:49:15.525Z,96564.00
2023-02-09T06:50:15.299Z,96566.00
2023-02-09T06:51:15.324Z,96566.00
2023-02-09T06:52:15.310Z,96566.00
2023-02-09T06:53:15.335Z,96564.00
2023-02-09T06:54:15.285Z,96568.00
2023-02-09T06:55:15.316Z,96566.00
2023-02-09T06:56:15.284Z,96568.00
2023-02-09T06:57:15.250Z,96570.00
2023-02-09T06:58:15.247Z,96566.00
2023-02-09T06:59:15.251Z,96566.00
2023-02-09T07:00:15.272Z,96572.00
2023-02-09T07:01:15.251Z,96570.00
2023-02-09T07:02:15.292Z,96572.00
2023-02-09T07:03:15.218Z,96570.00
2023-02-09T07:04:15.275Z,96568.00
2023-02-09T07:05:15.224Z,96568.00
2023-02-09T07:06:15.234Z,96572.00
2023-02-09T07:07:15.171Z,96568.00
2023-02-09T07:08:15.178Z,96570.00
2023-02-09T07:09:15.548Z,96570.00
2023-02-09T07:10:15.191Z,96572.00
2023-02-09T07:11:15.178Z,96570.00
2023-02-09T07:12:15.158Z,96572.00
2023-02-09T07:13:15.155Z,96574.00
2023-02-09T07:14:15.112Z,96572.00
2023-02-09T07:15:15.142Z,96572.00
2023-02-09T07:16:15.135Z,96574.00
2023-02-09T07:17:15.135Z,96580.00
2023-02-09T07:18:15.132Z,96578.00
2023-02-09T07:19:15.586Z,96580.00
2023-02-09T07:20:15.090Z,96580.00
2023-02-09T07:21:15.056Z,96584.00
2023-02-09T07:22:15.114Z,96584.00
2023-02-09T07:23:15.059Z,96588.00
2023-02-09T07:24:15.047Z,96588.00
2023-02-09T07:25:15.052Z,96588.00
2023-02-09T07:26:15.086Z,96588.00
2023-02-09T07:27:15.046Z,96590.00
2023-02-09T07:28:15.112Z,96590.00
2023-02-09T07:29:15.048Z,96590.00
2023-02-09T07:30:15.063Z,96588.00
2023-02-09T07:31:15.119Z,96592.00
2023-02-09T07:32:15.029Z,96592.00
2023-02-09T07:33:15.030Z,96592.00
2023-02-09T07:34:14.994Z,96595.00
2023-02-09T07:35:15.047Z,96592.00
2023-02-09T07:36:15.012Z,96592.00
2023-02-09T07:37:15.014Z,96594.00
2023-02-09T07:38:15.017Z,96594.00
2023-02-09T07:39:14.971Z,96594.00
2023-02-09T07:40:15.045Z,96595.00
2023-02-09T07:41:14.985Z,96594.00
2023-02-09T07:42:14.986Z,96592.00
2023-02-09T07:43:15.002Z,96590.00
2023-02-09T07:44:15.060Z,96592.00
2023-02-09T07:45:15.120Z,96590.00
2023-02-09T07:46:15.217Z,96592.00
2023-02-09T07:47:15.187Z,96592.00
2023-02-09T07:48:15.225Z,96594.00
2023-02-09T07:49:15.241Z,96592.00
2023-02-09T07:50:15.345Z,96597.00
2023-02-09T07:51:15.364Z,96597.00
2023-02-09T07:52:15.383Z,96594.00
2023-02-09T07:53:16.035Z,96588.00
2023-02-09T07:54:15.455Z,96590.00
2023-02-09T07:55:15.493Z,96592.00
2023-02-09T07:56:15.540Z,96592.00
2023-02-09T07:57:15.605Z,96590.00
2023-02-09T07:58:15.602Z,96592.00
2023-02-09T07:59:15.651Z,96592.00
2023-02-09T08:00:15.683Z,96594.00
2023-02-09T08:01:15.681Z,96590.00
2023-02-09T08:02:15.738Z,96592.00
2023-02-09T08:03:15.761Z,96592.00
2023-02-09T08:04:15.810Z,96594.00
2023-02-09T08:05:15.853Z,96595.00
2023-02-09T08:06:17.262Z,96594.00
2023-02-09T08:07:15.831Z,96595.00
2023-02-09T08:08:15.846Z,96594.00
2023-02-09T08:09:15.854Z,96592.00
2023-02-09T08:10:15.847Z,96592.00
2023-02-09T08:11:15.905Z,96592.00
2023-02-09T08:12:15.930Z,96592.00
2023-02-09T08:13:15.910Z,96590.00
2023-02-09T08:14:15.926Z,96590.00
2023-02-09T08:15:15.994Z,96590.00
2023-02-09T08:16:16.008Z,96590.00
2023-02-09T08:17:15.993Z,96588.00
2023-02-09T08:18:15.975Z,96588.00
2023-02-09T08:19:15.979Z,96588.00
2023-02-09T08:20:16.079Z,96586.00
2023-02-09T08:21:16.070Z,96584.00
2023-02-09T08:22:16.276Z,96582.00
2023-02-09T08:23:16.174Z,96582.00
2023-02-09T08:24:16.248Z,96580.00
2023-02-09T08:25:16.294Z,96578.00
2023-02-09T08:26:16.333Z,96576.00
2023-02-09T08:27:16.427Z,96576.00
2023-02-09T08:28:16.482Z,96578.00
2023-02-09T08:29:16.534Z,96576.00
2023-02-09T08:30:17.043Z,96574.00
2023-02-09T08:31:16.845Z,96570.00
2023-02-09T08:32:16.729Z,96570.00
2023-02-09T08:33:16.723Z,96572.00
2023-02-09T08:34:16.789Z,96572.00
2023-02-09T08:35:16.892Z,96572.00
2023-02-09T08:36:16.958Z,96574.00
2023-02-09T08:37:16.945Z,96572.00
2023-02-09T08:38:17.035Z,96570.00
2023-02-09T08:39:17.073Z,96568.00
2023-02-09T08:40:17.593Z,96566.00
2023-02-09T08:41:17.225Z,96566.00
2023-02-09T08:42:17.265Z,96566.00
2023-02-09T08:43:17.366Z,96568.00
2023-02-09T08:44:17.414Z,96568.00
2023-02-09T08:45:17.563Z,96568.00
2023-02-09T08:46:17.622Z,96566.00
2023-02-09T08:47:17.551Z,96566.00
2023-02-09T08:48:17.572Z,96564.00
2023-02-09T08:49:17.613Z,96564.00
2023-02-09T08:50:18.038Z,96562.00
2023-02-09T08:51:17.727Z,96566.00
2023-02-09T08:52:17.783Z,96564.00
2023-02-09T08:53:17.837Z,96562.00
2023-02-09T08:54:17.861Z,96560.00
2023-02-09T08:55:17.874Z,96560.00
2023-02-09T08:56:17.872Z,96558.00
2023-02-09T08:57:17.925Z,96562.00
2023-02-09T08:58:17.968Z,96562.00
2023-02-09T08:59:20.051Z,96560.00
2023-02-09T09:00:18.076Z,96562.00
2023-02-09T09:01:18.068Z,96560.00
2023-02-09T09:02:18.001Z,96560.00
2023-02-09T09:03:17.995Z,96560.00
2023-02-09T09:04:17.984Z,96556.00
2023-02-09T09:05:17.998Z,96558.00
2023-02-09T09:06:18.029Z,96564.00
2023-02-09T09:07:18.014Z,96560.00
2023-02-09T09:08:18.000Z,96564.00
2023-02-09T09:09:18.002Z,96564.00
2023-02-09T09:10:17.981Z,96564.00
2023-02-09T09:11:18.011Z,96560.00
2023-02-09T09:12:18.054Z,96560.00
2023-02-09T09:13:18.095Z,96562.00
2023-02-09T09:14:18.037Z,96560.00
2023-02-09T09:15:18.075Z,96560.00
2023-02-09T09:16:18.104Z,96560.00
2023-02-09T09:17:18.102Z,96560.00
2023-02-09T09:18:18.135Z,96560.00
2023-02-09T09:19:18.135Z,96556.00
2023-02-09T09:20:18.132Z,96555.00
2023-02-09T09:21:18.193Z,96551.00
2023-02-09T09:22:18.145Z,96553.00
2023-02-09T09:23:18.189Z,96555.00
2023-02-09T09:24:18.159Z,96551.00
2023-02-09T09:25:18.168Z,96551.00
2023-02-09T09:26:18.188Z,96553.00
2023-02-09T09:27:18.177Z,96553.00
2023-02-09T09:28:19.078Z,96553.00
2023-02-09T09:29:18.206Z,96551.00
2023-02-09T09:30:18.188Z,96553.00
2023-02-09T09:31:18.255Z,96556.00
2023-02-09T09:32:18.225Z,96555.00
2023-02-09T09:33:18.220Z,96553.00
2023-02-09T09:34:18.200Z,96555.00
2023-02-09T09:35:19.103Z,96553.00
2023-02-09T09:36:18.188Z,96545.00
2023-02-09T09:37:18.192Z,96543.00
2023-02-09T09:38:19.093Z,96541.00
2023-02-09T09:39:18.210Z,96543.00
2023-02-09T09:40:18.246Z,96541.00
2023-02-09T09:41:18.295Z,96543.00
2023-02-09T09:42:18.324Z,96539.00
2023-02-09T09:43:18.467Z,96539.00
2023-02-09T09:44:18.468Z,96541.00
2023-02-09T09:45:18.517Z,96539.00
2023-02-09T09:46:18.633Z,96537.00
2023-02-09T09:47:18.577Z,96539.00
2023-02-09T09:48:18.584Z,96539.00
2023-02-09T09:49:21.088Z,96539.00
2023-02-09T09:50:18.657Z,96539.00
2023-02-09T09:51:18.700Z,96543.00
2023-02-09T09:52:18.735Z,96543.00
2023-02-09T09:53:18.659Z,96541.00
2023-02-09T09:54:18.678Z,96543.00
2023-02-09T09:55:19.100Z,96543.00
2023-02-09T09:56:18.713Z,96541.00
2023-02-09T09:57:18.692Z,96543.00
2023-02-09T09:58:18.714Z,96543.00
2023-02-09T09:59:18.757Z,96547.00
2023-02-09T10:00:18.740Z,96547.00
2023-02-09T10:01:18.866Z,96543.00
2023-02-09T10:02:18.844Z,96547.00
2023-02-09T10:03:18.934Z,96547.00
2023-02-09T10:04:19.674Z,96545.00
2023-02-09T10:05:19.069Z,96545.00
2023-02-09T10:06:19.081Z,96543.00
2023-02-09T10:07:20.117Z,96547.00
2023-02-09T10:08:19.146Z,96549.00
2023-02-09T10:09:19.155Z,96549.00
2023-02-09T10:10:19.189Z,96545.00
2023-02-09T10:11:19.164Z,96545.00
2023-02-09T10:12:19.160Z,96543.00
2023-02-09T10:13:19.126Z,96547.00
2023-02-09T10:14:19.113Z,96545.00
2023-02-09T10:15:19.174Z,96543.00
2023-02-09T10:16:19.181Z,96539.00
2023-02-09T10:17:19.160Z,96541.00
2023-02-09T10:18:19.133Z,96539.00
2023-02-09T10:19:19.218Z,96539.00
2023-02-09T10:20:19.287Z,96539.00
2023-02-09T10:21:19.256Z,96539.00
2023-02-09T10:22:19.231Z,96539.00
2023-02-09T10:23:19.260Z,96537.00
2023-02-09T10:24:19.265Z,96537.00
2023-02-09T10:25:19.298Z,96533.00
2023-02-09T10:26:19.320Z,96535.00
2023-02-09T10:27:19.367Z,96535.00
2023-02-09T10:54:19.901Z,96500.00
2023-02-09T10:55:20.156Z,96496.00
2023-02-09T10:56:20.019Z,96494.00
2023-02-09T10:57:20.089Z,96494.00
2023-02-09T10:58:20.133Z,96492.00
2023-02-09T10:59:20.201Z,96488.00
2023-02-09T11:00:20.237Z,96486.00
2023-02-09T11:01:20.306Z,96486.00
2023-02-09T11:02:20.345Z,96480.00
2023-02-09T11:03:20.367Z,96480.00
2023-02-09T11:35:21.457Z,96429.00
2023-02-09T11:36:21.623Z,96425.00
2023-02-09T11:37:21.437Z,96425.00
2023-02-09T11:38:21.499Z,96421.00
2023-02-09T11:39:21.514Z,96421.00
2023-02-09T11:51:21.802Z,96403.00
2023-02-09T11:52:22.016Z,96401.00
2023-02-09T11:53:22.405Z,96400.00
2023-02-09T11:54:21.974Z,96400.00
2023-02-09T11:55:22.222Z,96398.00
2023-02-09T11:56:23.278Z,96398.00
2023-02-09T11:57:21.980Z,96396.00
2023-02-09T11:58:21.729Z,96396.00
2023-02-09T11:59:21.748Z,96394.00
2023-02-09T12:00:21.888Z,96390.00
2023-02-09T12:01:22.030Z,96390.00
2023-02-09T12:02:23.604Z,96388.00
2023-02-09T12:03:21.710Z,96386.00
2023-02-09T12:04:21.708Z,96384.00
2023-02-09T12:05:21.729Z,96382.00
2023-02-09T12:06:21.782Z,96378.00
2023-02-09T12:07:21.649Z,96378.00
2023-02-09T12:08:21.698Z,96374.00
2023-02-09T12:09:21.652Z,96372.00
2023-02-09T12:10:21.656Z,96372.00
2023-02-09T12:11:21.672Z,96370.00
2023-02-09T12:12:21.615Z,96368.00
2023-02-09T12:13:22.188Z,96366.00
2023-02-09T12:14:21.627Z,96364.00
2023-02-09T12:15:21.643Z,96364.00
2023-02-09T12:16:21.675Z,96362.00
2023-02-09T12:17:21.586Z,96361.00
2023-02-09T12:18:21.578Z,96362.00
2023-02-09T12:19:21.661Z,96359.00
2023-02-09T12:20:21.576Z,96359.00
2023-02-09T12:21:21.551Z,96361.00
2023-02-09T12:22:21.550Z,96357.00
2023-02-09T12:23:21.599Z,96353.00
2023-02-09T12:24:21.601Z,96355.00
2023-02-09T12:25:21.610Z,96355.00
2023-02-09T12:26:21.661Z,96355.00
2023-02-09T12:27:22.566Z,96351.00
2023-02-09T12:28:21.737Z,96347.00
2023-02-09T12:29:21.682Z,96345.00
2023-02-09T12:30:21.650Z,96345.00
2023-02-09T12:31:23.841Z,96343.00
2023-02-09T12:32:21.761Z,96341.00
2023-02-09T12:33:21.661Z,96341.00
2023-02-09T12:34:21.662Z,96339.00
2023-02-09T12:35:21.688Z,96337.00
2023-02-09T12:36:22.207Z,96331.00
2023-02-09T12:37:27.275Z,96331.00
2023-02-09T12:38:22.662Z,96327.00
2023-02-09T14:21:23.056Z,96265.00
2023-02-09T14:22:23.030Z,96263.00
2023-02-09T14:23:23.033Z,96265.00
2023-02-09T14:24:23.055Z,96265.00
2023-02-09T14:25:23.051Z,96267.00
2023-02-09T14:26:23.017Z,96267.00
2023-02-09T14:27:23.023Z,96268.00
2023-02-09T14:28:23.070Z,96270.00
2023-02-09T14:29:23.033Z,96270.00
2023-02-09T14:30:23.048Z,96268.00
2023-02-09T14:31:23.051Z,96270.00
2023-02-09T14:32:32.706Z,96270.00
2023-02-09T14:33:24.061Z,96270.00
2023-02-09T14:34:23.057Z,96272.00
2023-02-09T14:35:23.028Z,96268.00
2023-02-09T14:36:23.012Z,96270.00
2023-02-09T14:37:23.011Z,96270.00
2023-02-09T14:38:22.995Z,96272.00
2023-02-09T14:39:22.988Z,96268.00
2023-02-09T14:40:23.022Z,96267.00
2023-02-09T14:41:22.985Z,96267.00
2023-02-09T14:42:22.953Z,96267.00
2023-02-09T14:44:22.929Z,96265.00
2023-02-09T14:45:22.949Z,96267.00
2023-02-09T14:47:23.022Z,96268.00
2023-02-09T14:48:22.975Z,96268.00
2023-02-09T14:49:22.923Z,96267.00
2023-02-09T14:50:22.970Z,96265.00
2023-02-09T14:51:23.036Z,96263.00
2023-02-09T14:52:23.130Z,96263.00
2023-02-09T14:53:23.127Z,96267.00
2023-02-09T14:54:23.206Z,96268.00
2023-02-09T14:55:23.254Z,96268.00
2023-02-09T14:56:23.332Z,96268.00
2023-02-09T14:57:23.402Z,96268.00
2023-02-09T14:58:23.429Z,96270.00
2023-02-09T14:59:23.477Z,96268.00
2023-02-09T15:00:23.526Z,96268.00
2023-02-09T15:01:23.635Z,96272.00
2023-02-09T15:02:23.677Z,96270.00
2023-02-09T15:03:23.926Z,96270.00
2023-02-09T15:04:23.756Z,96270.00
2023-02-09T15:05:23.881Z,96270.00
2023-02-09T15:06:23.871Z,96272.00
2023-02-09T15:07:23.914Z,96270.00
2023-02-09T15:08:24.019Z,96272.00
2023-02-09T15:09:24.029Z,96268.00
2023-02-09T15:10:24.106Z,96267.00
2023-02-09T15:11:24.176Z,96270.00
2023-02-09T15:12:24.204Z,96272.00
2023-02-09T15:13:24.196Z,96267.00
2023-02-09T15:14:24.203Z,96272.00
2023-02-09T15:15:24.221Z,96267.00
2023-02-09T15:16:24.342Z,96270.00
2023-02-09T15:17:24.261Z,96272.00
2023-02-09T15:18:24.264Z,96272.00
2023-02-09T15:19:24.272Z,96270.00
2023-02-09T15:20:24.334Z,96272.00
2023-02-09T15:21:24.350Z,96276.00
2023-02-09T15:22:24.347Z,96276.00
2023-02-09T15:23:24.366Z,96276.00
2023-02-09T15:24:24.364Z,96276.00
2023-02-09T15:25:24.381Z,96278.00
2023-02-09T15:26:24.438Z,96280.00
2023-02-09T15:27:24.411Z,96282.00
2023-02-09T15:28:24.550Z,96284.00
2023-02-09T15:29:24.505Z,96282.00
2023-02-09T15:30:24.517Z,96282.00
2023-02-09T15:31:24.523Z,96282.00
2023-02-09T15:32:24.512Z,96282.00
2023-02-09T15:33:24.550Z,96284.00
2023-02-09T15:34:24.600Z,96280.00
2023-02-09T15:35:24.614Z,96284.00
2023-02-09T15:36:24.650Z,96286.00
2023-02-09T15:37:24.713Z,96286.00
2023-02-09T15:38:24.755Z,96288.00
2023-02-09T15:39:24.793Z,96290.00
2023-02-09T15:40:24.854Z,96292.00
2023-02-09T15:41:24.882Z,96288.00
2023-02-09T15:42:24.948Z,96290.00
2023-02-09T15:43:24.958Z,96290.00
2023-02-09T15:44:24.986Z,96290.00
2023-02-09T15:45:25.032Z,96290.00
2023-02-09T15:46:25.116Z,96292.00
2023-02-09T15:47:25.114Z,96294.00
2023-02-09T15:48:25.104Z,96300.00
2023-02-09T15:49:25.146Z,96300.00
2023-02-09T15:50:26.947Z,96300.00
2023-02-09T15:51:25.202Z,96300.00
2023-02-09T15:52:25.158Z,96304.00
2023-02-09T15:53:25.208Z,96306.00
2023-02-09T15:54:25.146Z,96306.00
2023-02-09T15:55:25.265Z,96306.00
2023-02-09T15:56:25.157Z,96307.00
2023-02-09T15:57:25.117Z,96307.00
2023-02-09T15:58:25.111Z,96309.00
2023-02-09T15:59:25.076Z,96314.00
2023-02-09T16:00:25.124Z,96315.00
2023-02-09T16:01:25.093Z,96317.00
2023-02-09T16:02:25.143Z,96319.00
2023-02-09T16:03:25.069Z,96323.00
2023-02-09T16:04:25.043Z,96327.00
2023-02-09T16:05:25.050Z,96331.00
2023-02-09T16:06:25.078Z,96333.00
2023-02-09T16:07:25.066Z,96335.00
2023-02-09T16:08:25.066Z,96339.00
2023-02-09T16:09:25.032Z,96339.00
2023-02-09T16:10:25.042Z,96339.00
2023-02-09T16:11:24.989Z,96339.00
2023-02-09T16:12:25.018Z,96343.00
2023-02-09T16:13:25.034Z,96343.00
2023-02-09T16:14:25.025Z,96345.00
2023-02-09T16:15:24.995Z,96345.00
2023-02-09T16:16:25.035Z,96347.00
2023-02-09T16:17:24.976Z,96349.00
2023-02-09T16:18:24.948Z,96349.00
2023-02-09T16:19:24.951Z,96353.00
2023-02-09T16:20:26.373Z,96355.00
2023-02-09T16:21:24.950Z,96359.00
2023-02-09T16:22:24.972Z,96361.00
2023-02-09T16:23:24.933Z,96359.00
2023-02-09T16:24:24.938Z,96361.00
2023-02-09T16:25:24.911Z,96361.00
2023-02-09T16:26:24.940Z,96364.00
2023-02-09T16:27:24.916Z,96362.00
2023-02-09T16:28:24.935Z,96364.00
2023-02-09T16:29:24.919Z,96368.00
2023-02-09T16:30:24.922Z,96370.00
2023-02-09T16:31:24.902Z,96372.00
2023-02-09T16:32:24.888Z,96376.00
2023-02-09T16:33:24.882Z,96376.00
2023-02-09T16:34:24.860Z,96382.00
2023-02-09T16:35:24.857Z,96382.00
2023-02-09T16:36:24.867Z,96382.00
2023-02-09T16:37:24.823Z,96388.00
2023-02-09T16:38:24.923Z,96386.00
2023-02-09T16:39:24.824Z,96390.00
2023-02-09T16:40:24.846Z,96394.00
2023-02-09T16:41:24.806Z,96396.00
2023-02-09T16:42:24.814Z,96398.00
2023-02-09T16:43:24.819Z,96396.00
2023-02-09T16:44:24.821Z,96396.00
2023-02-09T16:45:24.817Z,96396.00
2023-02-09T16:46:24.941Z,96400.00
2023-02-09T16:47:24.932Z,96400.00
2023-02-09T16:48:24.988Z,96401.00
2023-02-09T16:49:25.020Z,96403.00
2023-02-09T16:50:25.080Z,96407.00
2023-02-09T16:51:25.143Z,96407.00
2023-02-09T16:52:25.189Z,96407.00